Flight Track Log - Related Links

Times and Time Zones

All times are in EST time to prevent confusion due to time zone crossing. See the N508QS flight status page for this flight to view local times or setup timezone preferences in your user account.

Time Position Orientation Groundspeed Altitude Reporting Facility
EST Latitude Longitude Course Direction KTS MPH feet Rate Location/Type
Sat 11:46:14 AM 30.1933 -92.1308 245° Southwest 251 289 10,000  Level Houston Center
Sat 11:47:16 AM 30.1547 -92.2181 243° Southwest 289 333 12,000 2,634 Climbing Houston Center
Sat 11:48:17 AM 30.1156 -92.3144 245° Southwest 326 375 15,400 2,927 Climbing Houston Center
Sat 11:49:19 AM 30.0744 -92.4133 244° Southwest 339 390 18,000 1,268 Climbing Houston Center
Sat 11:50:00 AM 30.2457 -92.6554 270° West  Level Estimated
Sat 11:50:20 AM 30.0322 -92.5139 244° Southwest 346 398 18,000  Level Houston Center
Sat 11:51:23 AM 29.9828 -92.6336 245° Southwest 346 398 18,000 435 Level Houston Center
Sat 11:52:24 AM 29.9850 -92.7439 271° West 362 417 18,900 1,475 Climbing Houston Center
Sat 11:53:25 AM 30.0317 -92.8519 297° West 376 433 21,000 2,000 Climbing Houston Center
Sat 11:54:27 AM 30.0803 -92.9633 297° West 389 448 23,000 976 Climbing Houston Center
Sat 11:55:28 AM 30.1278 -93.0775 296° West 394 453 23,000 585 Level Houston Center
Sat 11:56:30 AM 30.1447 -93.1981 279° West 385 443 24,200 1,839 Climbing Houston Center
Sat 11:57:32 AM 30.1500 -93.3228 273° West 385 443 26,800 2,537 Climbing Houston Center
Sat 11:58:33 AM 30.1533 -93.4522 272° West 398 458 29,400 2,439 Climbing Houston Center
Sat 11:59:35 AM 30.1586 -93.5872 273° West 411 473 31,800 2,244 Climbing Houston Center
Sat 12:00:36 PM 30.1631 -93.7203 272° West 411 473 34,000 1,073 Climbing Houston Center
Sat 12:01:38 PM 30.1675 -93.8581 272° West 423 487 34,000  Level Houston Center
Sat 12:02:39 PM 30.1731 -94.0256 272° West 432 497 34,000  Level Houston Center
Sat 12:03:41 PM 30.1767 -94.1639 272° West 432 497 34,000  Level Houston Center
Sat 12:04:43 PM 30.1808 -94.3031 272° West 434 499 34,000  Level Houston Center
Sat 12:05:44 PM 30.1850 -94.4414 272° West 432 497 34,000  Level Houston Center
Sat 12:06:46 PM 30.1878 -94.5828 271° West 431 496 34,000  Level Houston Center
Sat 12:07:47 PM 30.1950 -94.7206 274° West 432 497 34,000  Level Houston Center
Sat 12:08:49 PM 30.2064 -94.8572 276° West 431 496 34,000  Level Houston Center
Sat 12:09:51 PM 30.2161 -94.9944 275° West 431 496 34,000  Level Houston Center
Sat 12:10:52 PM 30.2278 -95.1603 275° West 433 498 34,000  Level Houston Center
Sat 12:11:54 PM 30.2375 -95.2961 275° West 431 496 34,000  Level Houston Center
Sat 12:12:56 PM 30.2469 -95.4311 275° West 426 490 34,000  Level Houston Center
Sat 12:13:57 PM 30.2569 -95.5681 275° West 429 494 34,000 -49 Level Houston Center
Sat 12:14:59 PM 30.2650 -95.7042 274° West 428 493 33,900 -823 Descending Houston Center
Sat 12:16:01 PM 30.2739 -95.8342 275° West 412 474 32,300 -1,610 Descending Houston Center
Sat 12:17:02 PM 30.2842 -95.9867 275° West 399 459 30,600 -1,512 Descending Houston Center
Sat 12:18:04 PM 30.2922 -96.1028 275° West 402 463 29,200 -1,403 Descending Houston Center
Sat 12:19:06 PM 30.3003 -96.2311 274° West 398 458 27,700 -1,597 Descending Houston Center
Sat 12:20:08 PM 30.3094 -96.3772 274° West 387 445 25,900 -1,659 Descending Houston Center
Sat 12:21:09 PM 30.3178 -96.5017 274° West 383 441 24,300 -1,512 Descending Houston Center
Sat 12:22:11 PM 30.3250 -96.6228 274° West 377 434 22,800 -1,452 Descending Houston Center
Sat 12:23:13 PM 30.3331 -96.7433 274° West 373 429 21,300 -1,355 Descending Houston Center
Sat 12:24:15 PM 30.3400 -96.8594 274° West 361 415 20,000 -634 Descending Houston Center
Sat 12:25:16 PM 30.3475 -96.9728 274° West 351 404 20,000 -49 Level Houston Center
Sat 12:26:18 PM 30.3536 -97.0892 274° West 356 410 19,900 -1,016 Descending Houston Center
Sat 12:27:20 PM 30.3608 -97.2025 274° West 351 404 17,900 -1,707 Descending Houston Center
Sat 12:28:21 PM 30.3667 -97.3119 274° West 340 391 16,400 -1,756 Descending Houston Center
Sat 12:29:23 PM 30.3733 -97.4186 274° West 331 381 14,300 -1,645 Descending Houston Center
Sat 12:30:25 PM 30.3786 -97.5261 273° West 330 380 13,000 -1,220 Descending Houston Center
Sat 12:31:26 PM 30.3889 -97.6483 276° West 324 373 11,800 -1,366 Descending Houston Center
Sat 12:32:28 PM 30.3961 -97.7347 276° West 280 322 10,200 -1,597 Descending Houston Center
Sat 12:33:30 PM 30.4031 -97.8208 275° West 267 307 8,500 -1,887 Descending Houston Center
Sat 12:34:32 PM 30.4106 -97.9075 276° West 267 307 6,300 -1,854 Descending Houston Center
Sat 12:35:33 PM 30.4169 -97.9981 275° West 275 316 4,700 -1,122 Descending Houston Center
Sat 12:36:35 PM 30.4247 -98.0883 276° West 278 320 4,000 -484 Descending Houston Center
Sat 12:37:37 PM 30.4317 -98.1789 275° West 279 321 3,700 -146 Descending Houston Center
Sat 12:38:38 PM 30.4400 -98.2656 276° West 275 316 3,700  Level Houston Center
Sat 12:39:40 PM 30.4461 -98.3353 276° West 239 275 3,700  Level Houston Center
Sat 12:40:41 PM 30.4503 -98.4064 274° West 224 258 3,700  Level Houston Center
Sat 12:41:43 PM 30.4556 -98.4767 275° West 219 252 3,700  Level Houston Center
Sat 12:42:45 PM 30.4503 -98.5581 266° West 222 255 3,700  Level Houston Center
Sat 12:43:46 PM 30.4139 -98.5194 138° Southeast 214 246 3,700  Level Houston Center
Sat 12:45:00 PM 30.4500 -98.4833 90° East  Level FlightAware Approximate
Sat 12:52:00 PM 30.4564 -98.4897 90° East  Level Estimated
Sat 12:53:00 PM 30.4564 -98.4897 90° East  Level Estimated
Sat 12:54:00 PM 30.4564 -98.4897 90° East  Level Estimated
Sat 12:55:00 PM 30.4564 -98.4897 90° East  Level Estimated
Sat 12:56:00 PM 30.4564 -98.4897 90° East  Level Estimated
Sat 12:57:00 PM 30.4564 -98.4897 90° East  Level Estimated
Sat 12:58:00 PM 30.4564 -98.4897 90° East  Level Estimated
Sat 12:59:00 PM 30.4564 -98.4897 90° East  Level Estimated

Login

Don't have an account? Register now (free) for customized features, flight alerts, and more!